sensor_id;sensor_type;location;lat;lon;timestamp;temperature;humidity
6986;DHT22;3533;51.246;6.850;2023-06-14T00:01:37;23.50;43.90
6986;DHT22;3533;51.246;6.850;2023-06-14T00:04:03;23.50;43.90
6986;DHT22;3533;51.246;6.850;2023-06-14T00:06:30;23.40;43.80
6986;DHT22;3533;51.246;6.850;2023-06-14T00:08:56;23.40;43.80
6986;DHT22;3533;51.246;6.850;2023-06-14T00:11:21;23.50;43.90
6986;DHT22;3533;51.246;6.850;2023-06-14T00:13:47;23.50;43.80
6986;DHT22;3533;51.246;6.850;2023-06-14T00:16:15;23.40;43.70
6986;DHT22;3533;51.246;6.850;2023-06-14T00:18:42;23.40;43.70
6986;DHT22;3533;51.246;6.850;2023-06-14T00:21:07;23.50;43.60
6986;DHT22;3533;51.246;6.850;2023-06-14T00:23:34;23.50;43.80
6986;DHT22;3533;51.246;6.850;2023-06-14T00:25:59;23.50;43.80
6986;DHT22;3533;51.246;6.850;2023-06-14T00:28:25;23.50;43.70
6986;DHT22;3533;51.246;6.850;2023-06-14T00:30:50;23.50;43.80
6986;DHT22;3533;51.246;6.850;2023-06-14T00:33:16;23.40;43.60
6986;DHT22;3533;51.246;6.850;2023-06-14T00:35:41;23.40;43.70
6986;DHT22;3533;51.246;6.850;2023-06-14T00:38:07;23.50;43.70
6986;DHT22;3533;51.246;6.850;2023-06-14T00:40:32;23.40;43.70
6986;DHT22;3533;51.246;6.850;2023-06-14T00:42:58;23.40;43.70
6986;DHT22;3533;51.246;6.850;2023-06-14T00:45:23;23.40;43.60
6986;DHT22;3533;51.246;6.850;2023-06-14T00:47:50;23.40;43.60
6986;DHT22;3533;51.246;6.850;2023-06-14T00:50:18;23.40;43.60
6986;DHT22;3533;51.246;6.850;2023-06-14T00:52:44;23.40;43.60
6986;DHT22;3533;51.246;6.850;2023-06-14T00:55:10;23.40;43.50
6986;DHT22;3533;51.246;6.850;2023-06-14T00:57:35;23.40;43.50
6986;DHT22;3533;51.246;6.850;2023-06-14T01:00:03;23.40;43.50
6986;DHT22;3533;51.246;6.850;2023-06-14T01:02:30;23.40;43.60
6986;DHT22;3533;51.246;6.850;2023-06-14T01:04:55;23.40;43.50
6986;DHT22;3533;51.246;6.850;2023-06-14T01:12:46;23.40;43.50
6986;DHT22;3533;51.246;6.850;2023-06-14T01:15:14;23.40;43.50
6986;DHT22;3533;51.246;6.850;2023-06-14T01:17:41;23.40;43.50
6986;DHT22;3533;51.246;6.850;2023-06-14T01:20:11;23.40;43.50
6986;DHT22;3533;51.246;6.850;2023-06-14T01:22:50;23.40;43.40
6986;DHT22;3533;51.246;6.850;2023-06-14T01:25:16;23.40;43.40
6986;DHT22;3533;51.246;6.850;2023-06-14T01:27:42;23.40;43.30
6986;DHT22;3533;51.246;6.850;2023-06-14T01:30:08;23.40;43.30
6986;DHT22;3533;51.246;6.850;2023-06-14T01:32:36;23.40;43.30
6986;DHT22;3533;51.246;6.850;2023-06-14T01:35:01;23.40;43.40
6986;DHT22;3533;51.246;6.850;2023-06-14T01:37:29;23.40;43.30
6986;DHT22;3533;51.246;6.850;2023-06-14T01:39:55;23.40;43.30
6986;DHT22;3533;51.246;6.850;2023-06-14T01:42:23;23.40;43.30
6986;DHT22;3533;51.246;6.850;2023-06-14T01:44:49;23.40;43.30
6986;DHT22;3533;51.246;6.850;2023-06-14T01:47:16;23.40;43.30
6986;DHT22;3533;51.246;6.850;2023-06-14T01:49:42;23.40;43.20
6986;DHT22;3533;51.246;6.850;2023-06-14T01:52:07;23.40;43.20
6986;DHT22;3533;51.246;6.850;2023-06-14T01:54:35;23.40;43.30
6986;DHT22;3533;51.246;6.850;2023-06-14T01:57:03;23.40;43.20
6986;DHT22;3533;51.246;6.850;2023-06-14T01:59:29;23.40;43.20
6986;DHT22;3533;51.246;6.850;2023-06-14T02:01:56;23.40;43.20
6986;DHT22;3533;51.246;6.850;2023-06-14T02:04:22;23.40;43.20
6986;DHT22;3533;51.246;6.850;2023-06-14T02:06:47;23.40;43.20
6986;DHT22;3533;51.246;6.850;2023-06-14T02:09:13;23.40;43.20
6986;DHT22;3533;51.246;6.850;2023-06-14T02:11:38;23.40;43.20
6986;DHT22;3533;51.246;6.850;2023-06-14T02:14:04;23.40;43.20
6986;DHT22;3533;51.246;6.850;2023-06-14T02:16:30;23.40;43.10
6986;DHT22;3533;51.246;6.850;2023-06-14T02:18:55;23.40;43.10
6986;DHT22;3533;51.246;6.850;2023-06-14T02:21:22;23.40;43.10
6986;DHT22;3533;51.246;6.850;2023-06-14T02:23:47;23.40;43.10
6986;DHT22;3533;51.246;6.850;2023-06-14T02:26:13;23.30;43.00
6986;DHT22;3533;51.246;6.850;2023-06-14T02:28:38;23.40;43.10
6986;DHT22;3533;51.246;6.850;2023-06-14T02:31:04;23.40;43.10
6986;DHT22;3533;51.246;6.850;2023-06-14T02:33:29;23.40;43.00
6986;DHT22;3533;51.246;6.850;2023-06-14T02:35:55;23.30;43.00
6986;DHT22;3533;51.246;6.850;2023-06-14T02:38:21;23.30;43.00
6986;DHT22;3533;51.246;6.850;2023-06-14T02:40:47;23.30;43.00
6986;DHT22;3533;51.246;6.850;2023-06-14T02:43:12;23.40;43.00
6986;DHT22;3533;51.246;6.850;2023-06-14T02:45:38;23.30;43.00
6986;DHT22;3533;51.246;6.850;2023-06-14T02:48:04;23.30;43.00
6986;DHT22;3533;51.246;6.850;2023-06-14T02:50:29;23.30;42.90
6986;DHT22;3533;51.246;6.850;2023-06-14T02:52:55;23.40;43.00
6986;DHT22;3533;51.246;6.850;2023-06-14T02:55:22;23.30;43.00
6986;DHT22;3533;51.246;6.850;2023-06-14T02:57:48;23.30;42.90
6986;DHT22;3533;51.246;6.850;2023-06-14T03:00:13;23.30;42.90
6986;DHT22;3533;51.246;6.850;2023-06-14T03:02:39;23.30;42.90
6986;DHT22;3533;51.246;6.850;2023-06-14T03:05:05;23.30;42.80
6986;DHT22;3533;51.246;6.850;2023-06-14T03:07:32;23.30;43.00
6986;DHT22;3533;51.246;6.850;2023-06-14T03:09:58;23.30;42.90
6986;DHT22;3533;51.246;6.850;2023-06-14T03:12:23;23.30;42.80
6986;DHT22;3533;51.246;6.850;2023-06-14T03:14:49;23.30;42.80
6986;DHT22;3533;51.246;6.850;2023-06-14T03:17:16;23.30;42.80
6986;DHT22;3533;51.246;6.850;2023-06-14T03:19:42;23.30;42.90
6986;DHT22;3533;51.246;6.850;2023-06-14T03:22:08;23.30;42.90
6986;DHT22;3533;51.246;6.850;2023-06-14T03:24:34;23.30;42.90
6986;DHT22;3533;51.246;6.850;2023-06-14T03:27:02;23.30;42.80
6986;DHT22;3533;51.246;6.850;2023-06-14T03:29:27;23.30;42.90
6986;DHT22;3533;51.246;6.850;2023-06-14T03:32:01;23.30;42.10
6986;DHT22;3533;51.246;6.850;2023-06-14T03:34:27;23.30;42.10
6986;DHT22;3533;51.246;6.850;2023-06-14T03:36:52;23.30;41.30
6986;DHT22;3533;51.246;6.850;2023-06-14T03:39:18;23.30;40.80
6986;DHT22;3533;51.246;6.850;2023-06-14T03:41:44;23.30;40.20
6986;DHT22;3533;51.246;6.850;2023-06-14T03:44:10;23.30;39.70
6986;DHT22;3533;51.246;6.850;2023-06-14T03:46:35;23.40;39.50
6986;DHT22;3533;51.246;6.850;2023-06-14T03:49:01;23.40;39.40
6986;DHT22;3533;51.246;6.850;2023-06-14T03:51:28;23.40;39.40
6986;DHT22;3533;51.246;6.850;2023-06-14T03:53:54;23.30;39.20
6986;DHT22;3533;51.246;6.850;2023-06-14T03:56:21;23.40;39.20
6986;DHT22;3533;51.246;6.850;2023-06-14T03:58:47;23.30;39.20
6986;DHT22;3533;51.246;6.850;2023-06-14T04:01:12;23.40;39.40
6986;DHT22;3533;51.246;6.850;2023-06-14T04:03:38;23.40;39.50
6986;DHT22;3533;51.246;6.850;2023-06-14T04:06:06;23.40;39.70
6986;DHT22;3533;51.246;6.850;2023-06-14T04:08:31;23.40;39.60
6986;DHT22;3533;51.246;6.850;2023-06-14T04:10:57;23.50;39.70
6986;DHT22;3533;51.246;6.850;2023-06-14T04:13:22;23.50;39.60
6986;DHT22;3533;51.246;6.850;2023-06-14T04:15:48;23.50;39.60
6986;DHT22;3533;51.246;6.850;2023-06-14T04:18:14;23.50;39.50
6986;DHT22;3533;51.246;6.850;2023-06-14T04:20:39;23.50;39.30
6986;DHT22;3533;51.246;6.850;2023-06-14T04:23:17;23.50;39.20
6986;DHT22;3533;51.246;6.850;2023-06-14T04:25:47;23.50;39.10
6986;DHT22;3533;51.246;6.850;2023-06-14T04:28:14;23.50;38.70
6986;DHT22;3533;51.246;6.850;2023-06-14T04:30:43;23.50;38.80
6986;DHT22;3533;51.246;6.850;2023-06-14T04:33:10;23.50;39.00
6986;DHT22;3533;51.246;6.850;2023-06-14T04:35:36;23.50;39.10
6986;DHT22;3533;51.246;6.850;2023-06-14T04:38:03;23.50;39.20
6986;DHT22;3533;51.246;6.850;2023-06-14T04:40:30;23.50;39.30
6986;DHT22;3533;51.246;6.850;2023-06-14T04:42:56;23.50;39.50
6986;DHT22;3533;51.246;6.850;2023-06-14T04:45:23;23.50;39.50
6986;DHT22;3533;51.246;6.850;2023-06-14T04:47:49;23.50;39.60
6986;DHT22;3533;51.246;6.850;2023-06-14T04:50:16;23.50;39.70
6986;DHT22;3533;51.246;6.850;2023-06-14T04:52:42;23.40;39.60
6986;DHT22;3533;51.246;6.850;2023-06-14T04:55:08;23.40;39.60
6986;DHT22;3533;51.246;6.850;2023-06-14T04:57:34;23.40;40.20
6986;DHT22;3533;51.246;6.850;2023-06-14T05:00:03;23.40;39.80
6986;DHT22;3533;51.246;6.850;2023-06-14T05:02:31;23.40;39.80
6986;DHT22;3533;51.246;6.850;2023-06-14T05:04:56;23.40;39.90
6986;DHT22;3533;51.246;6.850;2023-06-14T05:07:22;23.40;40.00
6986;DHT22;3533;51.246;6.850;2023-06-14T05:09:49;23.40;40.00
6986;DHT22;3533;51.246;6.850;2023-06-14T05:12:14;23.40;40.10
6986;DHT22;3533;51.246;6.850;2023-06-14T05:14:44;23.40;40.10
6986;DHT22;3533;51.246;6.850;2023-06-14T05:17:09;23.40;40.20
6986;DHT22;3533;51.246;6.850;2023-06-14T05:19:35;23.40;40.30
6986;DHT22;3533;51.246;6.850;2023-06-14T05:22:01;23.40;40.30
6986;DHT22;3533;51.246;6.850;2023-06-14T05:24:28;23.40;40.50
6986;DHT22;3533;51.246;6.850;2023-06-14T05:26:56;23.40;40.60
6986;DHT22;3533;51.246;6.850;2023-06-14T05:29:21;23.40;40.70
6986;DHT22;3533;51.246;6.850;2023-06-14T05:31:47;23.40;40.80
6986;DHT22;3533;51.246;6.850;2023-06-14T05:34:12;23.40;40.80
6986;DHT22;3533;51.246;6.850;2023-06-14T05:36:38;23.40;40.90
6986;DHT22;3533;51.246;6.850;2023-06-14T05:39:04;23.40;41.00
6986;DHT22;3533;51.246;6.850;2023-06-14T05:41:31;23.40;41.00
6986;DHT22;3533;51.246;6.850;2023-06-14T05:43:57;23.40;41.10
6986;DHT22;3533;51.246;6.850;2023-06-14T05:46:23;23.40;41.10
6986;DHT22;3533;51.246;6.850;2023-06-14T05:48:51;23.40;41.60
6986;DHT22;3533;51.246;6.850;2023-06-14T05:51:17;23.40;41.20
6986;DHT22;3533;51.246;6.850;2023-06-14T05:53:49;23.40;41.30
6986;DHT22;3533;51.246;6.850;2023-06-14T05:56:15;23.40;41.40
6986;DHT22;3533;51.246;6.850;2023-06-14T05:58:43;23.40;41.30
6986;DHT22;3533;51.246;6.850;2023-06-14T06:01:08;23.40;41.40
6986;DHT22;3533;51.246;6.850;2023-06-14T06:03:34;23.40;41.50
6986;DHT22;3533;51.246;6.850;2023-06-14T06:05:59;23.40;41.60
6986;DHT22;3533;51.246;6.850;2023-06-14T06:08:26;23.40;41.50
6986;DHT22;3533;51.246;6.850;2023-06-14T06:10:52;23.40;41.50
6986;DHT22;3533;51.246;6.850;2023-06-14T06:13:17;23.40;41.60
6986;DHT22;3533;51.246;6.850;2023-06-14T06:15:43;23.40;41.50
6986;DHT22;3533;51.246;6.850;2023-06-14T06:18:09;23.40;41.60
6986;DHT22;3533;51.246;6.850;2023-06-14T06:20:34;23.40;41.60
6986;DHT22;3533;51.246;6.850;2023-06-14T06:23:01;23.40;41.60
6986;DHT22;3533;51.246;6.850;2023-06-14T06:25:27;23.40;41.60
6986;DHT22;3533;51.246;6.850;2023-06-14T06:27:56;23.40;41.70
6986;DHT22;3533;51.246;6.850;2023-06-14T06:30:22;23.40;41.70
6986;DHT22;3533;51.246;6.850;2023-06-14T06:32:48;23.40;41.70
6986;DHT22;3533;51.246;6.850;2023-06-14T06:35:13;23.40;41.70
6986;DHT22;3533;51.246;6.850;2023-06-14T06:37:40;23.40;41.80
6986;DHT22;3533;51.246;6.850;2023-06-14T06:40:06;23.40;41.80
6986;DHT22;3533;51.246;6.850;2023-06-14T06:42:33;23.40;41.80
6986;DHT22;3533;51.246;6.850;2023-06-14T06:44:58;23.40;41.80
6986;DHT22;3533;51.246;6.850;2023-06-14T06:47:24;23.40;41.90
6986;DHT22;3533;51.246;6.850;2023-06-14T06:49:50;23.40;41.90
6986;DHT22;3533;51.246;6.850;2023-06-14T06:52:16;23.40;41.90
6986;DHT22;3533;51.246;6.850;2023-06-14T06:54:41;23.40;42.00
6986;DHT22;3533;51.246;6.850;2023-06-14T06:57:07;23.40;42.00
6986;DHT22;3533;51.246;6.850;2023-06-14T06:59:34;23.40;42.00
6986;DHT22;3533;51.246;6.850;2023-06-14T07:02:00;23.40;42.00
6986;DHT22;3533;51.246;6.850;2023-06-14T07:04:25;23.40;42.10
6986;DHT22;3533;51.246;6.850;2023-06-14T07:06:51;23.40;42.10
6986;DHT22;3533;51.246;6.850;2023-06-14T07:09:16;23.40;42.10
6986;DHT22;3533;51.246;6.850;2023-06-14T07:11:46;23.40;42.10
6986;DHT22;3533;51.246;6.850;2023-06-14T07:14:11;23.40;42.10
6986;DHT22;3533;51.246;6.850;2023-06-14T07:16:37;23.40;43.00
6986;DHT22;3533;51.246;6.850;2023-06-14T07:19:03;23.40;42.20
6986;DHT22;3533;51.246;6.850;2023-06-14T07:21:29;23.40;42.10
6986;DHT22;3533;51.246;6.850;2023-06-14T07:23:55;23.40;42.20
6986;DHT22;3533;51.246;6.850;2023-06-14T07:26:21;23.40;42.20
6986;DHT22;3533;51.246;6.850;2023-06-14T07:28:47;23.40;42.90
6986;DHT22;3533;51.246;6.850;2023-06-14T07:31:14;23.40;42.20
6986;DHT22;3533;51.246;6.850;2023-06-14T07:33:41;23.40;42.10
6986;DHT22;3533;51.246;6.850;2023-06-14T07:36:07;23.50;42.20
6986;DHT22;3533;51.246;6.850;2023-06-14T07:38:32;23.40;42.10
6986;DHT22;3533;51.246;6.850;2023-06-14T07:40:58;23.40;42.20
6986;DHT22;3533;51.246;6.850;2023-06-14T07:43:23;23.50;42.30
6986;DHT22;3533;51.246;6.850;2023-06-14T07:45:49;23.40;42.10
6986;DHT22;3533;51.246;6.850;2023-06-14T07:48:14;23.40;42.20
6986;DHT22;3533;51.246;6.850;2023-06-14T07:50:40;23.50;42.30
6986;DHT22;3533;51.246;6.850;2023-06-14T07:53:06;23.50;43.10
6986;DHT22;3533;51.246;6.850;2023-06-14T07:55:32;23.50;42.30
6986;DHT22;3533;51.246;6.850;2023-06-14T07:57:58;23.50;42.30
6986;DHT22;3533;51.246;6.850;2023-06-14T08:00:24;23.50;42.30
6986;DHT22;3533;51.246;6.850;2023-06-14T08:02:50;23.50;43.10
6986;DHT22;3533;51.246;6.850;2023-06-14T08:05:17;23.50;42.20
6986;DHT22;3533;51.246;6.850;2023-06-14T08:07:43;23.40;42.20
6986;DHT22;3533;51.246;6.850;2023-06-14T08:10:09;23.40;42.10
6986;DHT22;3533;51.246;6.850;2023-06-14T08:12:34;23.50;42.20
6986;DHT22;3533;51.246;6.850;2023-06-14T08:15:00;23.50;42.20
6986;DHT22;3533;51.246;6.850;2023-06-14T08:17:26;23.40;42.10
6986;DHT22;3533;51.246;6.850;2023-06-14T08:19:52;23.50;42.20
6986;DHT22;3533;51.246;6.850;2023-06-14T08:22:20;23.50;42.20
6986;DHT22;3533;51.246;6.850;2023-06-14T08:24:47;23.50;42.30
6986;DHT22;3533;51.246;6.850;2023-06-14T08:27:12;23.40;42.20
6986;DHT22;3533;51.246;6.850;2023-06-14T08:29:38;23.40;42.20
6986;DHT22;3533;51.246;6.850;2023-06-14T08:32:06;23.50;42.30
6986;DHT22;3533;51.246;6.850;2023-06-14T08:34:32;23.50;43.00
6986;DHT22;3533;51.246;6.850;2023-06-14T08:36:57;23.50;42.30
6986;DHT22;3533;51.246;6.850;2023-06-14T08:39:23;23.50;42.30
6986;DHT22;3533;51.246;6.850;2023-06-14T08:41:50;23.50;42.30
6986;DHT22;3533;51.246;6.850;2023-06-14T08:44:16;23.50;42.30
6986;DHT22;3533;51.246;6.850;2023-06-14T08:46:42;23.50;42.30
6986;DHT22;3533;51.246;6.850;2023-06-14T08:49:11;23.50;42.30
6986;DHT22;3533;51.246;6.850;2023-06-14T08:51:37;23.50;42.30
6986;DHT22;3533;51.246;6.850;2023-06-14T08:54:03;23.50;42.30
6986;DHT22;3533;51.246;6.850;2023-06-14T08:56:30;23.50;42.30
6986;DHT22;3533;51.246;6.850;2023-06-14T08:58:57;23.50;42.30
6986;DHT22;3533;51.246;6.850;2023-06-14T09:01:25;23.50;42.30
6986;DHT22;3533;51.246;6.850;2023-06-14T09:03:52;23.50;42.30
6986;DHT22;3533;51.246;6.850;2023-06-14T09:06:21;23.50;42.30
6986;DHT22;3533;51.246;6.850;2023-06-14T09:08:48;23.50;42.30
6986;DHT22;3533;51.246;6.850;2023-06-14T09:11:15;23.50;42.30
6986;DHT22;3533;51.246;6.850;2023-06-14T09:13:42;23.50;42.30
6986;DHT22;3533;51.246;6.850;2023-06-14T09:16:08;23.50;42.30
6986;DHT22;3533;51.246;6.850;2023-06-14T09:18:42;23.50;42.30
6986;DHT22;3533;51.246;6.850;2023-06-14T09:21:13;23.50;42.30
6986;DHT22;3533;51.246;6.850;2023-06-14T09:23:40;23.50;42.30
6986;DHT22;3533;51.246;6.850;2023-06-14T09:26:10;23.50;42.30
6986;DHT22;3533;51.246;6.850;2023-06-14T09:28:40;23.50;42.30
6986;DHT22;3533;51.246;6.850;2023-06-14T09:31:07;23.50;42.30
6986;DHT22;3533;51.246;6.850;2023-06-14T09:33:34;23.50;42.30
6986;DHT22;3533;51.246;6.850;2023-06-14T09:35:59;23.50;42.30
6986;DHT22;3533;51.246;6.850;2023-06-14T09:38:25;23.50;42.30
6986;DHT22;3533;51.246;6.850;2023-06-14T09:40:51;23.50;42.30
6986;DHT22;3533;51.246;6.850;2023-06-14T09:43:17;23.50;42.30
6986;DHT22;3533;51.246;6.850;2023-06-14T09:45:44;23.50;42.30
6986;DHT22;3533;51.246;6.850;2023-06-14T09:48:11;23.50;42.30
6986;DHT22;3533;51.246;6.850;2023-06-14T09:50:37;23.50;42.30
6986;DHT22;3533;51.246;6.850;2023-06-14T09:53:06;23.50;42.20
6986;DHT22;3533;51.246;6.850;2023-06-14T09:55:36;23.50;42.30
6986;DHT22;3533;51.246;6.850;2023-06-14T09:58:05;23.50;42.20
6986;DHT22;3533;51.246;6.850;2023-06-14T10:00:32;23.50;42.20
6986;DHT22;3533;51.246;6.850;2023-06-14T10:03:06;23.50;42.10
6986;DHT22;3533;51.246;6.850;2023-06-14T10:05:36;23.50;42.10
6986;DHT22;3533;51.246;6.850;2023-06-14T10:08:14;23.50;42.10
6986;DHT22;3533;51.246;6.850;2023-06-14T10:10:42;23.50;42.00
6986;DHT22;3533;51.246;6.850;2023-06-14T10:13:08;23.50;42.00
6986;DHT22;3533;51.246;6.850;2023-06-14T10:16:09;23.50;42.10
6986;DHT22;3533;51.246;6.850;2023-06-14T10:18:51;23.50;41.90
6986;DHT22;3533;51.246;6.850;2023-06-14T10:21:31;23.50;41.90
6986;DHT22;3533;51.246;6.850;2023-06-14T10:23:59;23.50;41.90
6986;DHT22;3533;51.246;6.850;2023-06-14T10:26:26;23.50;41.90
6986;DHT22;3533;51.246;6.850;2023-06-14T10:29:00;23.50;41.90
6986;DHT22;3533;51.246;6.850;2023-06-14T10:31:46;23.50;41.80
6986;DHT22;3533;51.246;6.850;2023-06-14T10:34:27;23.50;41.80
6986;DHT22;3533;51.246;6.850;2023-06-14T10:37:11;23.60;41.80
6986;DHT22;3533;51.246;6.850;2023-06-14T10:39:41;23.60;41.80
6986;DHT22;3533;51.246;6.850;2023-06-14T10:42:07;23.50;41.80
6986;DHT22;3533;51.246;6.850;2023-06-14T10:49:52;23.60;41.70
6986;DHT22;3533;51.246;6.850;2023-06-14T10:52:22;23.60;42.50
6986;DHT22;3533;51.246;6.850;2023-06-14T10:55:01;23.60;41.70
6986;DHT22;3533;51.246;6.850;2023-06-14T10:57:27;23.50;41.60
6986;DHT22;3533;51.246;6.850;2023-06-14T10:59:53;23.50;41.70
6986;DHT22;3533;51.246;6.850;2023-06-14T11:04:50;23.50;41.50
6986;DHT22;3533;51.246;6.850;2023-06-14T11:10:40;23.60;41.60
6986;DHT22;3533;51.246;6.850;2023-06-14T11:13:07;23.50;41.50
6986;DHT22;3533;51.246;6.850;2023-06-14T11:15:34;23.60;41.60
6986;DHT22;3533;51.246;6.850;2023-06-14T11:18:01;23.60;41.60
6986;DHT22;3533;51.246;6.850;2023-06-14T11:20:31;23.60;41.50
6986;DHT22;3533;51.246;6.850;2023-06-14T11:22:57;23.60;41.50
6986;DHT22;3533;51.246;6.850;2023-06-14T11:25:23;23.60;41.50
6986;DHT22;3533;51.246;6.850;2023-06-14T11:27:52;23.60;41.50
6986;DHT22;3533;51.246;6.850;2023-06-14T11:30:18;23.60;41.50
6986;DHT22;3533;51.246;6.850;2023-06-14T11:32:50;23.60;41.40
6986;DHT22;3533;51.246;6.850;2023-06-14T11:35:18;23.60;41.40
6986;DHT22;3533;51.246;6.850;2023-06-14T11:37:44;23.60;41.40
6986;DHT22;3533;51.246;6.850;2023-06-14T11:40:11;23.60;41.40
6986;DHT22;3533;51.246;6.850;2023-06-14T11:42:40;23.60;41.30
6986;DHT22;3533;51.246;6.850;2023-06-14T11:45:10;23.60;41.40
6986;DHT22;3533;51.246;6.850;2023-06-14T11:47:38;23.60;41.30
6986;DHT22;3533;51.246;6.850;2023-06-14T11:50:05;23.60;41.30
6986;DHT22;3533;51.246;6.850;2023-06-14T11:52:32;23.60;41.30
6986;DHT22;3533;51.246;6.850;2023-06-14T11:54:58;23.60;41.30
6986;DHT22;3533;51.246;6.850;2023-06-14T11:57:24;23.60;41.20
6986;DHT22;3533;51.246;6.850;2023-06-14T11:59:51;23.60;41.20
6986;DHT22;3533;51.246;6.850;2023-06-14T12:02:18;23.60;41.20
6986;DHT22;3533;51.246;6.850;2023-06-14T12:04:46;23.60;41.10
6986;DHT22;3533;51.246;6.850;2023-06-14T12:07:13;23.60;41.10
6986;DHT22;3533;51.246;6.850;2023-06-14T12:10:04;23.70;41.10
6986;DHT22;3533;51.246;6.850;2023-06-14T12:12:35;23.60;41.00
6986;DHT22;3533;51.246;6.850;2023-06-14T12:15:03;23.60;41.10
6986;DHT22;3533;51.246;6.850;2023-06-14T12:17:34;23.70;41.10
6986;DHT22;3533;51.246;6.850;2023-06-14T12:20:08;23.60;41.10
6986;DHT22;3533;51.246;6.850;2023-06-14T12:22:37;23.60;41.00
6986;DHT22;3533;51.246;6.850;2023-06-14T12:25:04;23.70;41.20
6986;DHT22;3533;51.246;6.850;2023-06-14T12:27:29;23.60;41.10
6986;DHT22;3533;51.246;6.850;2023-06-14T12:30:02;23.70;41.10
6986;DHT22;3533;51.246;6.850;2023-06-14T12:32:28;23.70;41.10
6986;DHT22;3533;51.246;6.850;2023-06-14T12:34:55;23.70;41.10
6986;DHT22;3533;51.246;6.850;2023-06-14T12:37:20;23.70;41.10
6986;DHT22;3533;51.246;6.850;2023-06-14T12:39:47;23.70;41.20
6986;DHT22;3533;51.246;6.850;2023-06-14T12:42:12;23.70;41.10
6986;DHT22;3533;51.246;6.850;2023-06-14T12:44:39;23.70;41.10
6986;DHT22;3533;51.246;6.850;2023-06-14T12:47:07;23.70;41.10
6986;DHT22;3533;51.246;6.850;2023-06-14T12:49:33;23.70;41.20
6986;DHT22;3533;51.246;6.850;2023-06-14T12:51:58;23.70;41.10
6986;DHT22;3533;51.246;6.850;2023-06-14T12:54:24;23.70;41.10
6986;DHT22;3533;51.246;6.850;2023-06-14T12:56:51;23.70;41.20
6986;DHT22;3533;51.246;6.850;2023-06-14T12:59:17;23.70;41.20
6986;DHT22;3533;51.246;6.850;2023-06-14T13:01:43;23.70;41.10
6986;DHT22;3533;51.246;6.850;2023-06-14T13:04:10;23.80;41.30
6986;DHT22;3533;51.246;6.850;2023-06-14T13:06:36;23.80;41.30
6986;DHT22;3533;51.246;6.850;2023-06-14T13:09:01;23.70;41.20
6986;DHT22;3533;51.246;6.850;2023-06-14T13:11:29;23.70;41.20
6986;DHT22;3533;51.246;6.850;2023-06-14T13:13:55;23.80;41.30
6986;DHT22;3533;51.246;6.850;2023-06-14T13:16:21;23.70;41.20
6986;DHT22;3533;51.246;6.850;2023-06-14T13:18:46;23.70;41.20
6986;DHT22;3533;51.246;6.850;2023-06-14T13:21:12;23.80;41.30
6986;DHT22;3533;51.246;6.850;2023-06-14T13:23:38;23.80;41.30
6986;DHT22;3533;51.246;6.850;2023-06-14T13:26:03;23.80;41.40
6986;DHT22;3533;51.246;6.850;2023-06-14T13:28:29;23.80;41.30
6986;DHT22;3533;51.246;6.850;2023-06-14T13:30:54;23.70;41.20
6986;DHT22;3533;51.246;6.850;2023-06-14T13:33:21;23.70;41.20
6986;DHT22;3533;51.246;6.850;2023-06-14T13:35:46;23.80;41.30
6986;DHT22;3533;51.246;6.850;2023-06-14T13:38:14;23.80;41.30
6986;DHT22;3533;51.246;6.850;2023-06-14T13:40:40;23.80;41.40
6986;DHT22;3533;51.246;6.850;2023-06-14T13:43:05;23.80;41.30
6986;DHT22;3533;51.246;6.850;2023-06-14T13:45:31;23.80;41.40
6986;DHT22;3533;51.246;6.850;2023-06-14T13:47:56;23.70;41.20
6986;DHT22;3533;51.246;6.850;2023-06-14T13:50:22;23.80;41.30
6986;DHT22;3533;51.246;6.850;2023-06-14T13:52:48;23.70;41.30
6986;DHT22;3533;51.246;6.850;2023-06-14T13:55:13;23.80;41.40
6986;DHT22;3533;51.246;6.850;2023-06-14T13:57:39;23.70;41.30
6986;DHT22;3533;51.246;6.850;2023-06-14T14:00:05;23.80;41.40
6986;DHT22;3533;51.246;6.850;2023-06-14T14:02:32;23.80;41.40
6986;DHT22;3533;51.246;6.850;2023-06-14T14:04:58;23.80;41.30
6986;DHT22;3533;51.246;6.850;2023-06-14T14:07:23;23.70;41.30
6986;DHT22;3533;51.246;6.850;2023-06-14T14:09:49;23.80;41.30
6986;DHT22;3533;51.246;6.850;2023-06-14T14:12:14;23.80;41.30
6986;DHT22;3533;51.246;6.850;2023-06-14T14:14:40;23.80;41.30
6986;DHT22;3533;51.246;6.850;2023-06-14T14:17:06;23.80;41.40
6986;DHT22;3533;51.246;6.850;2023-06-14T14:19:32;23.80;41.30
6986;DHT22;3533;51.246;6.850;2023-06-14T14:21:58;23.80;41.40
6986;DHT22;3533;51.246;6.850;2023-06-14T14:24:23;23.70;41.30
6986;DHT22;3533;51.246;6.850;2023-06-14T14:26:49;23.80;41.30
6986;DHT22;3533;51.246;6.850;2023-06-14T14:29:16;23.80;41.40
6986;DHT22;3533;51.246;6.850;2023-06-14T14:31:42;23.70;41.30
6986;DHT22;3533;51.246;6.850;2023-06-14T14:34:08;23.70;41.50
6986;DHT22;3533;51.246;6.850;2023-06-14T14:36:33;23.80;41.40
6986;DHT22;3533;51.246;6.850;2023-06-14T14:39:01;23.80;41.40
6986;DHT22;3533;51.246;6.850;2023-06-14T14:41:27;23.80;41.50
6986;DHT22;3533;51.246;6.850;2023-06-14T14:43:53;23.80;41.50
6986;DHT22;3533;51.246;6.850;2023-06-14T14:46:18;23.70;41.30
6986;DHT22;3533;51.246;6.850;2023-06-14T14:48:44;23.70;41.30
6986;DHT22;3533;51.246;6.850;2023-06-14T14:51:09;23.80;41.40
6986;DHT22;3533;51.246;6.850;2023-06-14T14:53:35;23.70;41.30
6986;DHT22;3533;51.246;6.850;2023-06-14T14:56:00;23.70;41.30
6986;DHT22;3533;51.246;6.850;2023-06-14T14:58:26;23.80;41.50
6986;DHT22;3533;51.246;6.850;2023-06-14T15:00:52;23.70;41.30
6986;DHT22;3533;51.246;6.850;2023-06-14T15:03:18;23.80;41.50
6986;DHT22;3533;51.246;6.850;2023-06-14T15:05:43;23.80;41.40
6986;DHT22;3533;51.246;6.850;2023-06-14T15:08:09;23.80;41.40
6986;DHT22;3533;51.246;6.850;2023-06-14T15:10:38;23.80;41.60
6986;DHT22;3533;51.246;6.850;2023-06-14T15:13:07;23.80;41.60
6986;DHT22;3533;51.246;6.850;2023-06-14T15:15:33;23.80;41.50
6986;DHT22;3533;51.246;6.850;2023-06-14T15:17:59;23.70;41.50
6986;DHT22;3533;51.246;6.850;2023-06-14T15:20:25;23.70;41.50
6986;DHT22;3533;51.246;6.850;2023-06-14T15:22:51;23.70;41.50
6986;DHT22;3533;51.246;6.850;2023-06-14T15:25:17;23.70;41.50
6986;DHT22;3533;51.246;6.850;2023-06-14T15:27:43;23.80;41.70
6986;DHT22;3533;51.246;6.850;2023-06-14T15:30:09;23.80;41.60
6986;DHT22;3533;51.246;6.850;2023-06-14T15:32:34;23.70;41.40
6986;DHT22;3533;51.246;6.850;2023-06-14T15:35:00;23.70;41.50
6986;DHT22;3533;51.246;6.850;2023-06-14T15:37:26;23.70;41.40
6986;DHT22;3533;51.246;6.850;2023-06-14T15:39:51;23.80;41.60
6986;DHT22;3533;51.246;6.850;2023-06-14T15:42:17;23.80;41.60
6986;DHT22;3533;51.246;6.850;2023-06-14T15:44:42;23.80;41.60
6986;DHT22;3533;51.246;6.850;2023-06-14T15:47:08;23.80;41.50
6986;DHT22;3533;51.246;6.850;2023-06-14T15:49:33;23.70;41.30
6986;DHT22;3533;51.246;6.850;2023-06-14T15:51:59;23.80;41.50
6986;DHT22;3533;51.246;6.850;2023-06-14T15:54:26;23.80;41.50
6986;DHT22;3533;51.246;6.850;2023-06-14T15:56:52;23.80;41.40
6986;DHT22;3533;51.246;6.850;2023-06-14T15:59:18;23.80;41.40
6986;DHT22;3533;51.246;6.850;2023-06-14T16:01:43;23.80;41.30
6986;DHT22;3533;51.246;6.850;2023-06-14T16:04:09;23.70;41.20
6986;DHT22;3533;51.246;6.850;2023-06-14T16:06:34;23.70;41.20
6986;DHT22;3533;51.246;6.850;2023-06-14T16:09:02;23.80;41.30
6986;DHT22;3533;51.246;6.850;2023-06-14T16:11:28;23.80;41.30
6986;DHT22;3533;51.246;6.850;2023-06-14T16:13:54;23.80;41.30
6986;DHT22;3533;51.246;6.850;2023-06-14T16:16:21;23.80;41.20